createdAt,value
2022-09-12T00:01:43.493Z,16.10
2022-09-12T00:06:45.920Z,15.90
2022-09-12T00:11:49.991Z,15.80
2022-09-12T00:16:52.614Z,15.70
2022-09-12T00:21:55.298Z,15.50
2022-09-12T00:26:59.302Z,15.40
2022-09-12T00:32:02.193Z,15.30
2022-09-12T00:37:04.901Z,15.20
2022-09-12T00:42:10.548Z,15.20
2022-09-12T00:47:21.195Z,15.20
2022-09-12T00:52:29.722Z,15.20
2022-09-12T00:57:36.760Z,15.30
2022-09-12T01:02:39.219Z,15.30
2022-09-12T01:07:41.922Z,15.40
2022-09-12T01:12:46.551Z,15.40
2022-09-12T01:18:02.120Z,15.40
2022-09-12T01:23:30.780Z,15.30
2022-09-12T01:28:59.984Z,15.30
2022-09-12T01:34:16.658Z,15.30
2022-09-12T01:39:29.874Z,15.20
2022-09-12T01:44:40.221Z,15.20
2022-09-12T01:49:52.460Z,15.20
2022-09-12T01:55:03.082Z,15.20
2022-09-12T02:00:11.758Z,15.10
2022-09-12T02:05:19.552Z,15.10
2022-09-12T02:10:27.185Z,15.00
2022-09-12T02:15:38.318Z,15.00
2022-09-12T02:20:48.424Z,14.90
2022-09-12T02:25:56.319Z,15.00
2022-09-12T02:31:05.536Z,14.90
2022-09-12T02:36:16.902Z,14.90
2022-09-12T02:41:20.901Z,14.90
2022-09-12T02:46:27.345Z,14.90
2022-09-12T02:51:31.664Z,14.90
2022-09-12T02:56:34.251Z,14.90
2022-09-12T03:01:50.513Z,14.90
2022-09-12T03:07:09.999Z,14.90
2022-09-12T03:12:25.644Z,14.90
2022-09-12T03:17:38.133Z,14.90
2022-09-12T03:22:51.198Z,14.90
2022-09-12T03:27:59.191Z,14.90
2022-09-12T03:33:03.324Z,14.90
2022-09-12T03:38:07.746Z,14.90
2022-09-12T03:43:10.856Z,14.80
2022-09-12T03:48:13.305Z,14.70
2022-09-12T03:53:17.675Z,14.70
2022-09-12T03:58:19.926Z,14.70
2022-09-12T04:03:22.354Z,14.60
2022-09-12T04:08:26.066Z,14.60
2022-09-12T04:13:28.498Z,14.60
2022-09-12T04:18:31.363Z,14.60
2022-09-12T04:23:35.706Z,14.50
2022-09-12T04:28:39.424Z,14.50
2022-09-12T04:33:42.131Z,14.50
2022-09-12T04:38:47.763Z,14.40
2022-09-12T04:43:54.162Z,14.40
2022-09-12T04:48:57.293Z,14.40
2022-09-12T04:54:03.783Z,14.40
2022-09-12T04:59:06.627Z,14.40
2022-09-12T05:04:11.241Z,14.40
2022-09-12T05:09:15.556Z,14.40
2022-09-12T05:14:18.154Z,14.40
2022-09-12T05:19:21.335Z,14.50
2022-09-12T05:24:25.161Z,14.50
2022-09-12T05:29:27.702Z,14.50
2022-09-12T05:34:30.243Z,14.70
2022-09-12T05:39:34.187Z,15.00
2022-09-12T05:44:36.830Z,15.40
2022-09-12T05:49:39.093Z,15.90
2022-09-12T05:54:42.762Z,16.50
2022-09-12T05:59:45.037Z,17.10
2022-09-12T06:04:47.541Z,17.70
2022-09-12T06:09:51.375Z,18.20
2022-09-12T06:14:53.657Z,18.90
2022-09-12T06:19:56.049Z,19.60
2022-09-12T06:24:59.742Z,20.20
2022-09-12T06:30:02.261Z,20.80
2022-09-12T06:35:05.395Z,21.20
2022-09-12T06:40:12.940Z,21.50
2022-09-12T06:45:15.567Z,21.80
2022-09-12T06:50:18.107Z,22.00
2022-09-12T06:55:25.837Z,22.20
2022-09-12T07:00:30.405Z,22.20
2022-09-12T07:05:34.772Z,21.90
2022-09-12T07:10:38.959Z,21.50
2022-09-12T07:15:41.670Z,21.10
2022-09-12T07:20:44.333Z,20.80
2022-09-12T07:25:55.062Z,20.60
2022-09-12T07:30:58.198Z,20.40
2022-09-12T07:36:02.412Z,20.30
2022-09-12T07:41:13.843Z,20.20
2022-09-12T07:46:16.793Z,20.20
2022-09-12T07:51:20.165Z,20.10
2022-09-12T07:56:29.893Z,20.10
2022-09-12T08:01:33.994Z,20.10
2022-09-12T08:06:36.654Z,20.20
2022-09-12T08:11:40.975Z,20.20
2022-09-12T08:16:43.871Z,20.30
2022-09-12T08:21:46.418Z,20.40
2022-09-12T08:26:50.457Z,20.50
2022-09-12T08:31:57.041Z,20.60
2022-09-12T08:36:59.813Z,20.70
2022-09-12T08:42:05.473Z,20.90
2022-09-12T08:47:22.615Z,20.90
2022-09-12T08:52:27.832Z,21.00
2022-09-12T08:57:32.306Z,21.10
2022-09-12T09:03:16.760Z,21.20
2022-09-12T09:08:42.680Z,21.20
2022-09-12T09:14:04.490Z,21.30
2022-09-12T09:19:15.496Z,21.40
2022-09-12T09:24:22.234Z,21.50
2022-09-12T09:29:32.383Z,21.50
2022-09-12T09:34:35.420Z,21.70
2022-09-12T09:39:50.527Z,22.10
2022-09-12T09:44:59.484Z,22.70
2022-09-12T09:50:01.964Z,23.10
2022-09-12T09:55:12.871Z,23.40
2022-09-12T10:00:29.610Z,23.60
2022-09-12T10:05:34.588Z,23.80
2022-09-12T10:10:37.137Z,24.10
2022-09-12T10:15:57.257Z,24.30
2022-09-12T10:21:00.942Z,24.40
2022-09-12T10:26:08.730Z,24.40
2022-09-12T10:31:17.874Z,24.30
2022-09-12T10:36:21.177Z,24.10
2022-09-12T10:41:24.883Z,24.10
2022-09-12T10:46:32.239Z,24.20
2022-09-12T10:51:35.790Z,24.20
2022-09-12T10:56:45.309Z,24.50
2022-09-12T11:01:52.929Z,24.90
2022-09-12T11:07:15.950Z,25.30
2022-09-12T11:12:27.196Z,25.60
2022-09-12T11:17:44.760Z,25.60
2022-09-12T11:23:06.185Z,25.50
2022-09-12T11:28:29.161Z,25.50
2022-09-12T11:33:43.309Z,25.40
2022-09-12T11:39:01.985Z,25.50
2022-09-12T11:44:14.823Z,25.70
2022-09-12T11:49:32.299Z,26.10
2022-09-12T11:54:43.345Z,26.60
2022-09-12T11:59:52.215Z,27.00
2022-09-12T12:05:18.161Z,27.20
2022-09-12T12:10:39.851Z,27.10
2022-09-12T12:15:48.793Z,27.10
2022-09-12T12:20:55.658Z,27.20
2022-09-12T12:26:00.396Z,27.50
2022-09-12T12:31:03.596Z,27.80
2022-09-12T12:36:09.893Z,28.10
2022-09-12T12:41:43.734Z,28.20
2022-09-12T12:47:15.893Z,28.10
2022-09-12T12:52:20.773Z,27.70
2022-09-12T12:57:57.005Z,27.60
2022-09-12T13:03:00.987Z,27.40
2022-09-12T13:08:08.877Z,27.40
2022-09-12T13:13:24.045Z,27.50
2022-09-12T13:18:30.729Z,27.40
2022-09-12T13:23:35.375Z,27.40
2022-09-12T13:28:38.378Z,27.30
2022-09-12T13:33:45.928Z,27.20
2022-09-12T13:39:06.167Z,27.20
2022-09-12T13:44:12.492Z,27.30
2022-09-12T13:49:22.341Z,27.30
2022-09-12T13:54:27.169Z,27.20
2022-09-12T13:59:38.937Z,27.10
2022-09-12T14:04:41.825Z,27.10
2022-09-12T14:09:53.202Z,27.00
2022-09-12T14:14:56.207Z,27.00
2022-09-12T14:20:00.938Z,27.00
2022-09-12T14:25:07.864Z,26.90
2022-09-12T14:30:23.124Z,27.00
2022-09-12T14:35:43.477Z,26.90
2022-09-12T14:41:12.150Z,26.80
2022-09-12T14:46:22.316Z,26.80
2022-09-12T14:51:28.557Z,26.80
2022-09-12T14:56:54.075Z,26.80
2022-09-12T15:02:21.986Z,26.80
2022-09-12T15:07:37.170Z,26.70
2022-09-12T15:12:44.439Z,26.50
2022-09-12T15:17:47.110Z,26.50
2022-09-12T15:22:50.220Z,26.50
2022-09-12T15:27:54.807Z,26.60
2022-09-12T15:32:57.728Z,26.50
2022-09-12T15:38:00.275Z,26.50
2022-09-12T15:43:17.511Z,26.50
2022-09-12T15:48:20.473Z,26.60
2022-09-12T15:53:23.845Z,26.70
2022-09-12T15:58:28.350Z,26.60
2022-09-12T16:03:33.906Z,26.60
2022-09-12T16:08:57.140Z,26.60
2022-09-12T16:14:01.244Z,26.50
2022-09-12T16:19:18.410Z,26.40
2022-09-12T16:24:21.620Z,26.30
2022-09-12T16:29:25.818Z,26.20
2022-09-12T16:34:28.801Z,26.00
2022-09-12T16:39:39.964Z,25.90
2022-09-12T16:44:44.063Z,25.80
2022-09-12T16:49:46.769Z,25.80
2022-09-12T16:54:49.334Z,25.70
2022-09-12T16:59:54.247Z,25.70
2022-09-12T17:05:10.194Z,25.60
2022-09-12T17:10:12.917Z,25.50
2022-09-12T17:15:17.341Z,25.40
2022-09-12T17:20:20.688Z,25.20
2022-09-12T17:25:23.341Z,25.00
2022-09-12T17:30:45.217Z,24.90
2022-09-12T17:35:47.798Z,24.70
2022-09-12T17:40:59.393Z,24.60
2022-09-12T17:46:10.933Z,24.30
2022-09-12T17:51:18.223Z,24.10
2022-09-12T17:56:20.775Z,23.80
2022-09-12T18:01:26.120Z,23.70
2022-09-12T18:06:52.668Z,23.60
2022-09-12T18:11:55.883Z,23.50
2022-09-12T18:17:05.513Z,23.40
2022-09-12T18:22:08.377Z,23.20
2022-09-12T18:27:16.884Z,23.10
2022-09-12T18:32:21.445Z,23.00
2022-09-12T18:37:30.478Z,22.90
2022-09-12T18:43:14.746Z,22.80
2022-09-12T18:48:25.696Z,22.60
2022-09-12T18:53:30.516Z,22.40
2022-09-12T18:58:33.005Z,22.40
2022-09-12T19:03:37.570Z,22.20
2022-09-12T19:08:40.367Z,22.10
2022-09-12T19:13:44.771Z,21.90
2022-09-12T19:19:00.165Z,21.70
2022-09-12T19:24:34.297Z,21.70
2022-09-12T19:29:36.882Z,21.60
2022-09-12T19:34:51.337Z,21.60
2022-09-12T19:40:12.077Z,21.60
2022-09-12T19:45:46.340Z,21.60
2022-09-12T19:50:53.228Z,21.50
2022-09-12T19:56:31.630Z,21.40
2022-09-12T20:01:44.708Z,21.40
2022-09-12T20:06:48.914Z,21.40
2022-09-12T20:11:56.567Z,21.30
2022-09-12T20:17:03.959Z,21.30
2022-09-12T20:22:08.077Z,21.20
2022-09-12T20:27:10.529Z,21.20
2022-09-12T20:32:13.131Z,21.20
2022-09-12T20:37:17.234Z,21.20
2022-09-12T20:42:19.559Z,21.20
2022-09-12T20:47:22.007Z,21.10
2022-09-12T20:52:25.754Z,21.20
2022-09-12T20:57:28.106Z,21.10
2022-09-12T21:02:30.528Z,21.10
2022-09-12T21:07:34.306Z,21.10
2022-09-12T21:12:36.611Z,21.10
2022-09-12T21:17:39.061Z,21.10
2022-09-12T21:22:42.994Z,21.10
2022-09-12T21:27:45.408Z,21.10
2022-09-12T21:32:47.653Z,21.00
2022-09-12T21:37:53.612Z,21.00
2022-09-12T21:42:56.323Z,21.00
2022-09-12T21:47:59.129Z,21.00
2022-09-12T21:53:03.055Z,21.00
2022-09-12T21:58:05.391Z,21.00
2022-09-12T22:03:07.999Z,21.00
2022-09-12T22:08:12.167Z,21.00
2022-09-12T22:13:14.514Z,21.00
2022-09-12T22:18:16.794Z,21.00
2022-09-12T22:23:24.635Z,21.00
2022-09-12T22:28:27.469Z,21.00
2022-09-12T22:33:29.844Z,21.00
2022-09-12T22:38:33.837Z,21.00
2022-09-12T22:43:37.081Z,20.90
2022-09-12T22:48:39.643Z,20.80
2022-09-12T22:53:43.658Z,20.70
2022-09-12T22:58:45.941Z,20.70
2022-09-12T23:03:48.304Z,20.70
2022-09-12T23:08:52.363Z,20.70
2022-09-12T23:13:54.701Z,20.60
2022-09-12T23:18:56.904Z,20.60
2022-09-12T23:24:00.644Z,20.50
2022-09-12T23:29:04.044Z,20.50
2022-09-12T23:34:06.594Z,20.30
2022-09-12T23:39:11.053Z,20.30
2022-09-12T23:44:13.382Z,20.20
2022-09-12T23:49:15.629Z,20.20
2022-09-12T23:54:19.431Z,20.20
2022-09-12T23:59:22.030Z,20.20
